createdAt,value
2022-08-18T00:01:14.905Z,13.27
2022-08-18T00:03:56.673Z,14.13
2022-08-18T00:06:29.542Z,15.05
2022-08-18T00:08:59.926Z,14.65
2022-08-18T00:11:41.071Z,14.18
2022-08-18T00:14:22.750Z,14.05
2022-08-18T00:16:53.520Z,13.27
2022-08-18T00:19:43.518Z,13.55
2022-08-18T00:22:15.283Z,14.88
2022-08-18T00:24:48.581Z,14.23
2022-08-18T00:27:23.776Z,14.15
2022-08-18T00:29:58.236Z,13.25
2022-08-18T00:32:30.188Z,13.88
2022-08-18T00:34:57.015Z,14.02
2022-08-18T00:37:24.720Z,12.88
2022-08-18T00:39:53.866Z,13.50
2022-08-18T00:42:30.722Z,14.65
2022-08-18T00:45:01.162Z,14.65
2022-08-18T00:47:33.013Z,14.85
2022-08-18T00:50:15.768Z,14.95
2022-08-18T00:52:53.677Z,15.65
2022-08-18T00:55:23.682Z,15.80
2022-08-18T00:57:55.899Z,16.42
2022-08-18T01:00:22.820Z,16.60
2022-08-18T01:02:58.931Z,16.15
2022-08-18T01:05:41.177Z,16.67
2022-08-18T01:08:14.296Z,15.23
2022-08-18T01:10:42.475Z,15.95
2022-08-18T01:13:10.257Z,14.77
2022-08-18T01:15:37.887Z,15.32
2022-08-18T01:18:29.475Z,14.98
2022-08-18T01:21:23.760Z,14.30
2022-08-18T01:23:53.544Z,14.38
2022-08-18T01:26:22.653Z,14.25
2022-08-18T01:28:50.556Z,14.77
2022-08-18T01:31:53.296Z,14.50
2022-08-18T01:34:25.592Z,14.93
2022-08-18T01:36:54.823Z,14.20
2022-08-18T01:41:17.269Z,15.18
2022-08-18T01:42:11.298Z,14.30
2022-08-18T01:44:41.464Z,12.98
2022-08-18T01:47:10.890Z,13.93
2022-08-18T01:49:43.136Z,14.48
2022-08-18T01:52:18.196Z,13.65
2022-08-18T01:54:44.827Z,13.95
2022-08-18T01:57:13.390Z,14.45
2022-08-18T01:59:42.391Z,14.05
2022-08-18T02:02:18.475Z,13.48
2022-08-18T02:04:47.352Z,13.07
2022-08-18T02:07:14.894Z,13.38
2022-08-18T02:09:43.674Z,13.93
2022-08-18T02:12:11.276Z,15.25
2022-08-18T02:14:39.282Z,13.85
2022-08-18T02:17:08.908Z,13.40
2022-08-18T02:19:40.264Z,13.02
2022-08-18T02:22:10.531Z,14.40
2022-08-18T02:24:38.283Z,13.63
2022-08-18T02:27:06.104Z,13.65
2022-08-18T02:29:33.289Z,13.27
2022-08-18T02:31:59.819Z,13.02
2022-08-18T02:34:26.457Z,13.85
2022-08-18T02:36:53.062Z,14.13
2022-08-18T02:39:20.324Z,13.35
2022-08-18T02:41:47.121Z,14.45
2022-08-18T02:44:14.319Z,13.98
2022-08-18T02:46:40.924Z,14.07
2022-08-18T02:49:08.030Z,14.32
2022-08-18T02:51:34.934Z,14.70
2022-08-18T02:54:01.652Z,14.95
2022-08-18T02:56:41.575Z,15.00
2022-08-18T02:59:15.195Z,14.75
2022-08-18T03:01:46.317Z,15.43
2022-08-18T03:04:17.600Z,15.07
2022-08-18T03:06:46.307Z,14.90
2022-08-18T03:09:18.434Z,15.07
2022-08-18T03:11:45.947Z,16.00
2022-08-18T03:14:14.482Z,15.60
2022-08-18T03:16:53.597Z,14.73
2022-08-18T03:19:29.030Z,15.52
2022-08-18T03:21:59.416Z,15.10
2022-08-18T03:24:29.885Z,15.57
2022-08-18T03:26:57.219Z,14.80
2022-08-18T03:29:29.482Z,15.52
2022-08-18T03:31:57.661Z,15.32
2022-08-18T03:34:24.228Z,15.77
2022-08-18T03:36:51.993Z,15.43
2022-08-18T03:39:22.831Z,15.68
2022-08-18T03:41:59.798Z,16.33
2022-08-18T03:44:36.966Z,16.38
2022-08-18T03:47:07.976Z,16.23
2022-08-18T03:49:35.456Z,16.58
2022-08-18T03:52:03.509Z,15.90
2022-08-18T03:54:34.158Z,17.00
2022-08-18T03:57:01.385Z,17.38
2022-08-18T03:59:30.614Z,16.95
2022-08-18T04:01:57.350Z,18.20
2022-08-18T04:04:28.218Z,17.00
2022-08-18T04:07:00.547Z,17.17
2022-08-18T04:09:30.778Z,17.25
2022-08-18T04:12:02.656Z,18.08
2022-08-18T04:14:31.476Z,17.60
2022-08-18T04:16:59.650Z,18.95
2022-08-18T04:19:27.814Z,17.98
2022-08-18T04:21:57.713Z,17.80
2022-08-18T04:24:28.263Z,18.27
2022-08-18T04:27:00.780Z,17.30
2022-08-18T04:29:28.451Z,17.60
2022-08-18T04:31:55.274Z,17.00
2022-08-18T04:34:23.094Z,16.52
2022-08-18T04:36:54.261Z,16.63
2022-08-18T04:39:22.785Z,16.38
2022-08-18T04:41:50.654Z,15.85
2022-08-18T04:44:18.202Z,15.98
2022-08-18T04:46:51.796Z,17.65
2022-08-18T04:49:23.931Z,16.10
2022-08-18T04:52:37.404Z,18.48
2022-08-18T04:54:56.354Z,16.42
2022-08-18T04:57:23.972Z,16.50
2022-08-18T04:59:52.372Z,22.42
2022-08-18T05:02:21.613Z,16.27
2022-08-18T05:04:48.754Z,16.05
2022-08-18T05:07:20.531Z,17.38
2022-08-18T05:09:47.150Z,16.33
2022-08-18T05:12:16.124Z,16.98
2022-08-18T05:14:45.291Z,17.80
2022-08-18T05:17:14.870Z,17.63
2022-08-18T05:19:44.346Z,17.05
2022-08-18T05:22:19.286Z,18.67
2022-08-18T05:24:52.837Z,19.98
2022-08-18T05:27:19.692Z,22.15
2022-08-18T05:29:46.449Z,19.95
2022-08-18T05:32:37.310Z,19.65
2022-08-18T05:35:18.743Z,19.63
2022-08-18T05:38:26.481Z,22.10
2022-08-18T05:41:14.275Z,22.15
2022-08-18T05:43:51.481Z,18.95
2022-08-18T05:46:26.274Z,21.10
2022-08-18T05:48:52.828Z,24.83
2022-08-18T05:51:41.064Z,25.20
2022-08-18T05:54:28.355Z,29.83
2022-08-18T05:57:05.316Z,28.88
2022-08-18T05:59:37.201Z,27.13
2022-08-18T06:02:36.672Z,24.15
2022-08-18T06:05:12.994Z,25.75
2022-08-18T06:07:56.871Z,26.70
2022-08-18T06:10:24.815Z,27.00
2022-08-18T06:13:01.798Z,26.92
2022-08-18T06:15:52.790Z,28.00
2022-08-18T06:18:49.310Z,27.77
2022-08-18T06:21:57.127Z,26.58
2022-08-18T06:24:44.308Z,28.02
2022-08-18T06:27:20.651Z,33.08
2022-08-18T06:30:24.635Z,30.58
2022-08-18T06:33:06.579Z,34.10
2022-08-18T06:35:58.545Z,26.80
2022-08-18T06:38:55.113Z,26.48
2022-08-18T06:41:40.732Z,27.50
2022-08-18T06:44:32.324Z,27.60
2022-08-18T06:47:11.289Z,26.45
2022-08-18T06:49:46.597Z,32.63
2022-08-18T06:53:02.159Z,30.75
2022-08-18T06:55:45.759Z,32.20
2022-08-18T06:58:12.179Z,41.97
2022-08-18T07:00:46.297Z,44.65
2022-08-18T07:03:21.794Z,40.28
2022-08-18T07:06:14.066Z,45.13
2022-08-18T07:08:45.233Z,41.35
2022-08-18T07:11:21.979Z,35.88
2022-08-18T07:14:09.584Z,34.15
2022-08-18T07:16:57.873Z,31.00
2022-08-18T07:19:30.795Z,33.85
2022-08-18T07:22:04.546Z,33.85
2022-08-18T07:24:44.662Z,33.80
2022-08-18T07:27:21.646Z,29.02
2022-08-18T07:30:15.335Z,30.02
2022-08-18T07:33:00.030Z,31.23
2022-08-18T07:35:39.250Z,36.03
2022-08-18T07:38:41.971Z,35.25
2022-08-18T07:41:22.732Z,30.23
2022-08-18T07:44:00.594Z,25.58
2022-08-18T07:46:38.609Z,25.65
2022-08-18T07:49:07.029Z,25.15
2022-08-18T07:52:43.923Z,25.83
2022-08-18T07:55:29.005Z,33.03
2022-08-18T07:58:23.331Z,39.83
2022-08-18T08:01:00.000Z,43.70
2022-08-18T08:03:55.651Z,47.38
2022-08-18T08:06:40.981Z,46.75
2022-08-18T08:09:46.119Z,50.50
2022-08-18T08:13:12.380Z,47.13
2022-08-18T08:16:12.401Z,44.15
2022-08-18T08:20:00.433Z,48.60
2022-08-18T08:22:38.406Z,44.97
2022-08-18T08:28:46.923Z,39.45
2022-08-18T08:32:04.052Z,37.13
2022-08-18T08:34:48.659Z,38.63
2022-08-18T08:37:24.417Z,29.88
2022-08-18T08:40:00.555Z,29.13
2022-08-18T08:45:32.260Z,26.42
2022-08-18T08:48:56.335Z,25.60
2022-08-18T08:51:34.852Z,28.27
2022-08-18T08:54:31.395Z,28.40
2022-08-18T08:57:02.062Z,29.55
2022-08-18T08:59:28.686Z,23.40
2022-08-18T09:02:32.011Z,23.83
2022-08-18T09:05:13.819Z,24.98
2022-08-18T09:08:32.663Z,24.23
2022-08-18T09:11:57.946Z,25.65
2022-08-18T09:14:57.060Z,25.33
2022-08-18T09:18:08.947Z,24.80
2022-08-18T09:20:56.922Z,20.70
2022-08-18T09:23:34.163Z,22.70
2022-08-18T09:26:41.448Z,23.33
2022-08-18T09:29:16.615Z,21.80
2022-08-18T09:31:46.561Z,26.00
2022-08-18T09:35:02.619Z,30.92
2022-08-18T09:38:17.458Z,20.90
2022-08-18T09:41:26.520Z,23.58
2022-08-18T09:44:35.128Z,26.50
2022-08-18T09:47:02.284Z,23.17
2022-08-18T09:49:29.102Z,25.45
2022-08-18T09:52:24.128Z,28.27
2022-08-18T09:55:17.896Z,22.02
2022-08-18T09:57:46.574Z,20.55
2022-08-18T10:00:29.589Z,23.98
2022-08-18T10:02:57.201Z,24.05
2022-08-18T10:05:31.028Z,20.42
2022-08-18T10:11:09.362Z,21.83
2022-08-18T10:14:07.770Z,21.13
2022-08-18T10:17:21.353Z,22.05
2022-08-18T10:20:07.921Z,22.20
2022-08-18T10:22:54.484Z,21.80
2022-08-18T10:25:46.306Z,22.90
2022-08-18T10:28:54.278Z,21.88
2022-08-18T10:34:19.401Z,21.25
2022-08-18T10:36:53.054Z,19.67
2022-08-18T10:39:42.835Z,18.77
2022-08-18T10:42:33.687Z,18.70
2022-08-18T10:45:13.737Z,18.50
2022-08-18T10:51:30.456Z,21.02
2022-08-18T10:54:54.897Z,20.43
2022-08-18T10:57:39.496Z,18.60
2022-08-18T11:00:21.255Z,19.15
2022-08-18T11:03:51.951Z,19.33
2022-08-18T11:06:21.716Z,16.00
2022-08-18T11:08:55.328Z,17.13
2022-08-18T11:11:38.075Z,18.75
2022-08-18T11:14:31.488Z,18.92
2022-08-18T11:17:28.127Z,18.45
2022-08-18T11:19:55.994Z,17.75
2022-08-18T11:22:35.568Z,18.67
2022-08-18T11:25:19.119Z,18.20
2022-08-18T11:27:48.723Z,18.85
2022-08-18T11:30:17.230Z,17.77
2022-08-18T11:32:51.763Z,19.35
2022-08-18T11:35:27.476Z,20.90
2022-08-18T11:38:03.212Z,19.03
2022-08-18T11:43:38.897Z,19.33
2022-08-18T11:46:29.282Z,16.20
2022-08-18T11:49:00.735Z,20.42
2022-08-18T11:51:34.157Z,17.27
2022-08-18T11:54:21.824Z,17.02
2022-08-18T11:56:50.326Z,17.33
2022-08-18T11:59:53.118Z,17.85
2022-08-18T12:02:18.143Z,16.83
2022-08-18T12:04:52.898Z,16.60
2022-08-18T12:07:30.759Z,15.40
2022-08-18T12:10:26.313Z,15.63
2022-08-18T12:12:59.808Z,16.23
2022-08-18T12:15:43.843Z,14.98
2022-08-18T12:18:25.922Z,14.87
2022-08-18T12:20:58.029Z,13.05
2022-08-18T12:23:24.938Z,17.63
2022-08-18T12:31:14.922Z,12.50
2022-08-18T12:34:00.856Z,12.02
2022-08-18T12:36:29.740Z,15.65
2022-08-18T12:38:57.109Z,14.77
2022-08-18T12:41:24.358Z,15.63
2022-08-18T12:43:59.138Z,13.13
2022-08-18T12:46:27.014Z,13.02
2022-08-18T12:48:53.831Z,15.43
2022-08-18T12:51:24.823Z,15.68
2022-08-18T12:56:31.582Z,20.85
2022-08-18T12:59:04.496Z,15.35
2022-08-18T13:01:37.326Z,23.15
2022-08-18T13:04:12.393Z,20.90
2022-08-18T13:06:58.894Z,14.30
2022-08-18T13:09:35.285Z,16.13
2022-08-18T13:12:17.119Z,15.55
2022-08-18T13:14:45.283Z,16.23
2022-08-18T13:17:29.973Z,21.23
2022-08-18T13:20:01.251Z,15.45
2022-08-18T13:22:32.144Z,19.05
2022-08-18T13:25:06.915Z,14.35
2022-08-18T13:27:35.916Z,15.65
2022-08-18T13:30:30.081Z,16.48
2022-08-18T13:33:05.384Z,12.48
2022-08-18T13:35:47.846Z,13.73
2022-08-18T13:38:25.864Z,16.83
2022-08-18T13:40:57.920Z,12.80
2022-08-18T13:43:34.241Z,14.25
2022-08-18T13:46:02.443Z,13.23
2022-08-18T13:48:31.860Z,16.35
2022-08-18T13:51:02.017Z,16.50
2022-08-18T13:53:31.698Z,16.60
2022-08-18T13:55:59.366Z,15.43
2022-08-18T13:58:29.216Z,14.05
2022-08-18T14:01:39.816Z,13.15
2022-08-18T14:03:53.581Z,16.63
2022-08-18T14:06:24.151Z,13.13
2022-08-18T14:08:53.389Z,14.15
2022-08-18T14:11:33.204Z,18.60
2022-08-18T14:14:02.074Z,13.25
2022-08-18T14:16:28.842Z,14.80
2022-08-18T14:19:14.190Z,14.68
2022-08-18T14:22:11.088Z,13.38
2022-08-18T14:24:59.816Z,15.18
2022-08-18T14:27:38.721Z,17.65
2022-08-18T14:30:11.211Z,15.15
2022-08-18T14:32:48.914Z,14.48
2022-08-18T14:35:33.818Z,15.63
2022-08-18T14:38:09.779Z,15.70
2022-08-18T14:40:41.762Z,17.75
2022-08-18T14:43:14.133Z,14.07
2022-08-18T14:45:48.959Z,14.18
2022-08-18T14:48:21.507Z,16.80
2022-08-18T14:50:52.482Z,16.50
2022-08-18T14:53:23.475Z,15.48
2022-08-18T14:55:52.573Z,15.13
2022-08-18T14:58:27.622Z,14.52
2022-08-18T15:00:58.308Z,14.40
2022-08-18T15:03:31.620Z,12.73
2022-08-18T15:06:00.970Z,14.20
2022-08-18T15:08:36.135Z,16.23
2022-08-18T15:11:11.763Z,16.45
2022-08-18T15:13:41.737Z,14.45
2022-08-18T15:16:13.350Z,14.25
2022-08-18T15:18:45.539Z,14.13
2022-08-18T15:21:34.848Z,14.40
2022-08-18T15:24:23.997Z,15.75
2022-08-18T15:27:03.266Z,15.05
2022-08-18T15:29:33.863Z,15.50
2022-08-18T15:32:05.741Z,14.98
2022-08-18T15:34:46.376Z,15.30
2022-08-18T15:37:15.891Z,13.38
2022-08-18T15:39:51.679Z,14.40
2022-08-18T15:42:19.098Z,15.23
2022-08-18T15:44:46.054Z,13.93
2022-08-18T15:47:12.638Z,14.95
2022-08-18T15:49:39.207Z,15.73
2022-08-18T15:52:06.775Z,15.48
2022-08-18T15:54:42.255Z,14.88
2022-08-18T15:57:39.004Z,14.50
2022-08-18T16:00:01.276Z,13.85
2022-08-18T16:02:27.799Z,14.15
2022-08-18T16:04:54.601Z,14.38
2022-08-18T16:07:40.043Z,17.40
2022-08-18T16:12:34.588Z,14.73
2022-08-18T16:15:03.699Z,15.68
2022-08-18T16:17:35.425Z,17.13
2022-08-18T16:20:02.041Z,15.95
2022-08-18T16:22:29.138Z,16.35
2022-08-18T16:24:55.751Z,16.48
2022-08-18T16:27:22.238Z,17.35
2022-08-18T16:29:49.539Z,14.63
2022-08-18T16:32:16.764Z,17.63
2022-08-18T16:34:43.403Z,16.45
2022-08-18T16:37:10.383Z,16.35
2022-08-18T16:39:37.042Z,16.90
2022-08-18T16:42:04.167Z,15.73
2022-08-18T16:44:32.699Z,14.95
2022-08-18T16:47:01.550Z,15.85
2022-08-18T16:49:28.839Z,13.85
2022-08-18T16:51:55.683Z,15.27
2022-08-18T16:54:22.569Z,16.98
2022-08-18T16:56:49.094Z,15.02
2022-08-18T16:59:34.444Z,16.08
2022-08-18T17:02:19.909Z,14.07
2022-08-18T17:04:46.457Z,16.23
2022-08-18T17:07:13.005Z,14.32
2022-08-18T17:09:39.555Z,15.98
2022-08-18T17:12:06.274Z,14.68
2022-08-18T17:14:33.579Z,14.82
2022-08-18T17:17:00.918Z,15.45
2022-08-18T17:19:33.527Z,15.57
2022-08-18T17:22:02.987Z,16.45
2022-08-18T17:24:31.959Z,16.10
2022-08-18T17:27:27.655Z,17.85
2022-08-18T17:30:18.527Z,14.38
2022-08-18T17:32:54.186Z,15.27
2022-08-18T17:35:33.181Z,15.98
2022-08-18T17:38:23.200Z,15.20
2022-08-18T17:40:54.421Z,17.15
2022-08-18T17:43:30.443Z,14.68
2022-08-18T17:48:37.605Z,16.58
2022-08-18T17:51:32.227Z,16.45
2022-08-18T17:54:02.460Z,16.48
2022-08-18T17:56:42.320Z,17.67
2022-08-18T17:59:51.298Z,16.88
2022-08-18T18:02:29.698Z,15.88
2022-08-18T18:05:09.260Z,16.35
2022-08-18T18:07:45.003Z,17.08
2022-08-18T18:10:51.077Z,15.60
2022-08-18T18:13:32.227Z,17.58
2022-08-18T18:16:27.909Z,16.15
2022-08-18T18:19:14.696Z,15.95
2022-08-18T18:22:00.530Z,16.30
2022-08-18T18:27:00.445Z,15.77
2022-08-18T18:29:38.272Z,15.20
2022-08-18T18:32:50.430Z,16.23
2022-08-18T18:35:34.171Z,16.23
2022-08-18T18:38:21.771Z,15.02
2022-08-18T18:40:58.809Z,15.77
2022-08-18T18:43:45.900Z,15.27
2022-08-18T18:46:31.096Z,15.15
2022-08-18T18:49:18.856Z,15.20
2022-08-18T18:52:45.479Z,17.58
2022-08-18T18:55:24.599Z,14.90
2022-08-18T18:58:12.375Z,15.85
2022-08-18T19:00:59.448Z,16.83
2022-08-18T19:03:56.715Z,14.80
2022-08-18T19:10:10.495Z,14.30
2022-08-18T19:12:52.604Z,19.27
2022-08-18T19:15:21.106Z,15.50
2022-08-18T19:18:08.901Z,14.57
2022-08-18T19:21:44.763Z,16.88
2022-08-18T19:24:02.380Z,14.73
2022-08-18T19:26:40.386Z,15.55
2022-08-18T19:29:23.074Z,14.32
2022-08-18T19:32:16.352Z,15.88
2022-08-18T19:34:51.371Z,18.05
2022-08-18T19:37:32.223Z,18.95
2022-08-18T19:40:23.955Z,16.05
2022-08-18T19:43:12.340Z,14.75
2022-08-18T19:46:10.982Z,14.93
2022-08-18T19:49:03.534Z,14.75
2022-08-18T19:51:37.453Z,14.85
2022-08-18T19:54:11.129Z,16.35
2022-08-18T19:57:03.406Z,16.48
2022-08-18T19:59:47.087Z,16.13
2022-08-18T20:02:35.191Z,16.30
2022-08-18T20:05:30.559Z,15.82
2022-08-18T20:08:28.563Z,15.38
2022-08-18T20:11:20.866Z,15.20
2022-08-18T20:14:12.576Z,15.60
2022-08-18T20:16:44.548Z,15.68
2022-08-18T20:19:51.807Z,16.40
2022-08-18T20:22:27.010Z,16.93
2022-08-18T20:25:06.079Z,15.20
2022-08-18T20:27:41.827Z,15.75
2022-08-18T20:31:15.520Z,16.40
2022-08-18T20:34:14.074Z,16.73
2022-08-18T20:36:43.677Z,16.85
2022-08-18T20:39:47.593Z,16.05
2022-08-18T20:42:24.552Z,15.65
2022-08-18T20:44:57.650Z,15.63
2022-08-18T20:47:48.442Z,17.00
2022-08-18T20:50:37.515Z,15.20
2022-08-18T20:53:22.731Z,17.02
2022-08-18T20:56:46.399Z,15.93
2022-08-18T20:59:30.515Z,15.35
2022-08-18T21:02:26.232Z,18.83
2022-08-18T21:04:57.752Z,15.40
2022-08-18T21:07:38.227Z,16.85
2022-08-18T21:10:22.972Z,16.55
2022-08-18T21:12:55.794Z,15.52
2022-08-18T21:15:35.388Z,16.67
2022-08-18T21:18:18.640Z,16.25
2022-08-18T21:20:48.916Z,17.58
2022-08-18T21:23:29.294Z,16.70
2022-08-18T21:26:06.620Z,17.92
2022-08-18T21:28:37.803Z,19.17
2022-08-18T21:31:43.606Z,17.75
2022-08-18T21:34:30.504Z,18.02
2022-08-18T21:37:00.518Z,16.88
2022-08-18T21:39:27.037Z,17.05
2022-08-18T21:41:56.963Z,16.77
2022-08-18T21:44:42.288Z,17.10
2022-08-18T21:47:21.585Z,17.05
2022-08-18T21:50:29.056Z,16.17
2022-08-18T21:52:59.987Z,17.10
2022-08-18T21:55:35.748Z,17.77
2022-08-18T21:58:16.638Z,17.58
2022-08-18T22:01:10.576Z,19.20
2022-08-18T22:03:59.140Z,17.17
2022-08-18T22:06:36.649Z,17.30
2022-08-18T22:09:48.287Z,25.20
2022-08-18T22:12:48.758Z,16.02
2022-08-18T22:15:27.065Z,16.48
2022-08-18T22:18:26.391Z,17.95
2022-08-18T22:21:00.859Z,16.38
2022-08-18T22:24:03.661Z,16.65
2022-08-18T22:26:36.689Z,16.35
2022-08-18T22:29:06.410Z,17.23
2022-08-18T22:31:38.899Z,17.75
2022-08-18T22:34:28.227Z,17.08
2022-08-18T22:37:09.800Z,16.30
2022-08-18T22:39:53.597Z,17.80
2022-08-18T22:42:25.811Z,18.33
2022-08-18T22:44:53.110Z,19.70
2022-08-18T22:47:20.078Z,17.70
2022-08-18T22:49:47.254Z,19.05
2022-08-18T22:52:29.754Z,16.75
2022-08-18T22:54:59.655Z,18.23
2022-08-18T22:57:29.370Z,18.13
2022-08-18T22:59:56.600Z,17.23
2022-08-18T23:02:24.703Z,19.42
2022-08-18T23:04:51.240Z,18.30
2022-08-18T23:07:22.554Z,17.80
2022-08-18T23:09:49.084Z,18.08
2022-08-18T23:12:17.104Z,16.85
2022-08-18T23:14:46.438Z,18.10
2022-08-18T23:17:14.060Z,18.23
2022-08-18T23:19:40.886Z,18.52
2022-08-18T23:22:09.535Z,17.50
2022-08-18T23:24:38.515Z,17.50
2022-08-18T23:27:06.149Z,18.52
2022-08-18T23:29:36.568Z,18.35
2022-08-18T23:32:07.919Z,18.90
2022-08-18T23:34:36.000Z,18.75
2022-08-18T23:37:04.487Z,19.08
2022-08-18T23:39:34.808Z,18.08
2022-08-18T23:42:03.751Z,18.20
2022-08-18T23:44:30.790Z,18.73
2022-08-18T23:46:59.790Z,19.02
2022-08-18T23:49:28.599Z,18.20
2022-08-18T23:51:56.013Z,22.30
2022-08-18T23:54:32.183Z,18.83
2022-08-18T23:56:59.482Z,18.38
2022-08-18T23:59:28.498Z,18.40
